»·PEaware :: N80VJ KSBD-KEMT

N80VJ :: KSBD-KEMT

FLIGHT INFORMATION

Flight Status: Arrived
Operator: Privately registered:
United States
More flights under this callsign
Pilot: Christopher S. (28961)
Aircraft: CIRRUS SR-20
(SR20)
More flights by this aircraft type
Origin: KSBD San Bernardino Intl
United States
Destination: KEMT El Monte
United States
More flights between these airports :: More routes between these airports
Route:
File this flight plan on PilotEdge
Remarks:
Altitude:
(Current/Filed)
4,500ft
Speed:
(Current/Filed)
140kts
Departed: 11-Jan-21 11:56 AM
Arrived: 11-Jan-21 12:25 PM
Distance/Time
Traveled:
40nm/0:29
Distance/Time
To Go:
Arrived

Flight Plot

Page will automatically refresh every two minutes.


Map Options




Map Legend


Flown Route
Filed Route
Departure Airport
Arrival Airport
Navaid (VOR, NDB)
Fix

Horizontal Profiles

Position Reports

Time Latitude Longitude Heading Altitude Ground
Speed
11-Jan-21 11:35 34.104464 -117.245821 286 1103ft 0kts
11-Jan-21 11:36 34.104464 -117.245821 286 1103ft 0kts
11-Jan-21 11:37 34.104464 -117.245821 286 1103ft 0kts
11-Jan-21 11:38 34.104464 -117.245821 286 1103ft 0kts
11-Jan-21 11:39 34.104464 -117.245821 286 1103ft 0kts
11-Jan-21 11:40 34.104464 -117.245821 286 1103ft 0kts
11-Jan-21 11:41 34.104464 -117.245821 286 1103ft 0kts
11-Jan-21 11:42 34.104464 -117.245821 286 1103ft 0kts
11-Jan-21 11:43 34.104341 -117.245710 117 1103ft 3kts
11-Jan-21 11:44 34.103440 -117.242710 118 1107ft 9kts
11-Jan-21 11:45 34.102169 -117.240454 145 1110ft 8kts
11-Jan-21 11:46 34.098723 -117.238068 157 1113ft 16kts
11-Jan-21 11:47 34.095444 -117.240562 251 1106ft 22kts
11-Jan-21 11:48 34.093760 -117.246311 248 1093ft 14kts
11-Jan-21 11:49 34.092536 -117.250474 251 1086ft 13kts
11-Jan-21 11:50 34.091999 -117.251265 136 1085ft 0kts
11-Jan-21 11:51 34.091999 -117.251265 136 1085ft 0kts
11-Jan-21 11:52 34.091999 -117.251265 135 1085ft 0kts
11-Jan-21 11:53 34.091999 -117.251265 135 1085ft 0kts
11-Jan-21 11:54 34.091586 -117.250861 138 1085ft 0kts
11-Jan-21 11:55 34.094809 -117.236485 68 1270ft 103kts
11-Jan-21 11:56 34.085985 -117.215853 212 2544ft 103kts
11-Jan-21 11:57 34.074043 -117.246433 250 3731ft 103kts
11-Jan-21 11:58 34.057517 -117.277856 192 4527ft 136kts
11-Jan-21 11:59 34.014564 -117.288425 191 4509ft 159kts
11-Jan-21 12:00 33.972441 -117.285963 112 4514ft 153kts
11-Jan-21 12:01 33.985716 -117.238370 62 4512ft 148kts
11-Jan-21 12:02 34.015153 -117.238412 301 4514ft 151kts
11-Jan-21 12:03 34.036482 -117.284500 301 4505ft 151kts
11-Jan-21 12:04 34.051717 -117.334895 276 4505ft 153kts
11-Jan-21 12:05 34.054466 -117.384024 276 4500ft 133kts
11-Jan-21 12:06 34.056886 -117.430904 276 4504ft 130kts
11-Jan-21 12:07 34.059187 -117.475574 276 4510ft 134kts
11-Jan-21 12:08 34.061972 -117.522657 289 4500ft 136kts
11-Jan-21 12:09 34.076422 -117.567573 292 4507ft 134kts
11-Jan-21 12:10 34.092052 -117.613585 292 4508ft 134kts
11-Jan-21 12:11 34.108014 -117.659740 292 4509ft 133kts
11-Jan-21 12:12 34.124067 -117.705679 292 4509ft 133kts
11-Jan-21 12:13 34.136380 -117.750701 275 4510ft 134kts
11-Jan-21 12:14 34.138157 -117.795902 272 4509ft 133kts
11-Jan-21 12:15 34.139557 -117.842708 272 4509ft 133kts
11-Jan-21 12:16 34.140708 -117.890248 272 4511ft 134kts
11-Jan-21 12:17 34.141398 -117.939012 272 4407ft 142kts
11-Jan-21 12:18 34.134279 -117.991363 218 3494ft 166kts
11-Jan-21 12:19 34.105696 -118.027513 222 2530ft 128kts
11-Jan-21 12:20 34.074951 -118.044497 241 1322ft 104kts
11-Jan-21 12:21 34.097738 -118.057878 7 1419ft 128kts
11-Jan-21 12:22 34.120850 -118.042886 103 1084ft 89kts
11-Jan-21 12:23 34.104806 -118.025328 180 904ft 79kts
11-Jan-21 12:24 34.086110 -118.034824 207 293ft 35kts
11-Jan-21 12:25 34.085307 -118.034589 129 292ft 0kts
11-Jan-21 12:26 34.085307 -118.034589 129 292ft 0kts
11-Jan-21 12:27 34.085496 -118.032997 63 295ft 10kts
11-Jan-21 12:28 34.085607 -118.032861 247 296ft 0kts
11-Jan-21 12:29 34.085607 -118.032861 247 296ft 0kts
11-Jan-21 12:30 34.085607 -118.032861 247 296ft 0kts
11-Jan-21 12:31 34.085607 -118.032861 247 296ft 0kts
11-Jan-21 12:32 34.085607 -118.032861 247 296ft 0kts

Navigation Log

Ident Type
Flight plan parsing failed, navigation log unavailable